AirNav   Free Bose QuietComfort 20
 
 1140 users online  

PN23 University of Pittsburgh Medical Center Mercy Heliport
Pittsburgh, Pennsylvania, USA

GOING TO PITTSBURGH?


FAA INFORMATION EFFECTIVE 05 DECEMBER 2019

Location

FAA Identifier: PN23
Lat/Long: 40-26-08.7100N 079-59-04.9400W
40-26.145167N 079-59.082333W
40.4357528,-79.9847056
(estimated)
Elevation: 886 ft. / 270 m (estimated)
Variation: 08W (1990)
Time zone: UTC -5 (UTC -4 during Daylight Saving Time)
Zip code: 15219

Heliport Operations

Heliport use: Private use. Permission required prior to landing
Activation date: 03/1994
Control tower: no
ARTCC: CLEVELAND CENTER
FSS: ALTOONA FLIGHT SERVICE STATION
Attendance: CONTINUOUS
Wind indicator: lighted
Segmented circle: no

Heliport Communications

WX AWOS-A at 42PN (1.5 nm NW): PHONE 412-442-2213
WX ASOS at AGC (6 nm SE): PHONE 412-466-8968
WX ASOS at PIT (12 nm W): PHONE 412-472-0145
WX AWOS-3 at FWQ (15 nm SE): 118.475 (724-379-5815)

Nearby radio navigation aids

VOR radial/distance  VOR name  Freq  Var
AGCr024/9.8ALLEGHENY VOR/DME110.0009W
EWCr164/25.5ELLWOOD CITY VOR/DME115.8008W
HLGr075/28.7WHEELING VOR/DME112.2007W
IHDr320/39.9INDIAN HEAD VORTAC108.2006W

Heliport Services

Runway Information

Helipad H1

Dimensions: 65 x 65 ft. / 20 x 20 m
Surface: concrete
Latitude: 40-26.145167N
Longitude: 079-59.082333W
Elevation: 886.0 ft.
Traffic pattern: leftleft

Heliport Ownership and Management from official FAA records

Ownership: Privately-owned
Owner: UPMC MERCY
1400 LOCUST STREET, STE 1215
PITTSBURGH, PA 15219
Phone 412-232-8111
Manager: ANN CURTIS
1400 LOCUST STREET, STE 1051
PITTSBURGH, PA 15219
Phone (412) 232-8370

Additional Remarks

A52-H1 HAS 127 FT BLDG 44 FT N & 13 FT BLDG 148 FT E.
FOR CD CTC PITTSBURGH APCH AT 412-472-5591

Instrument Procedures

There are no published instrument procedures at PN23.

Some nearby airports with instrument procedures:

KAGC - Allegheny County Airport (6 nm SE)
G05 - Finleyville Airpark (11 nm S)
KPIT - Pittsburgh International Airport (12 nm W)
KFWQ - Rostraver Airport (15 nm SE)
KBTP - Pittsburgh/Butler Regional Airport (21 nm N)
 
Loc | Ops | Rwys | IFR | FBO | Links
Com | Nav | Svcs | Stats | Notes
Area around PN23 (University of Pittsburgh Medical Center Mercy Heliport)
 
Road maps at: MapQuest Bing Google
 
Aerial photo
No photo
 
Sectional chart

 
Airport distance calculator
Flying to University of Pittsburgh Medical Center Mercy Heliport? Find the distance to fly.

From to PN23

Sunrise and sunset
Times for 07-Dec-2019
 Local
(UTC-5)
 Zulu
(UTC)
Morning civil twilight07:0012:00
Sunrise07:3112:31
Sunset16:5221:52
Evening civil twilight17:2322:23

Current date and time
Zulu (UTC)  08-Dec-2019 02:57:00
Local (UTC-5)  07-Dec-2019 21:57:00
 
METAR
KAGC 
6nm SE 
080153Z 12004KT 10SM CLR M01/M08 A3037 RMK AO2 SLP305 T10061078
KPIT 
13nm W 
080151Z 00000KT 10SM BKN250 M02/M07 A3037 RMK AO2 SLP309 T10171072
KP53 
15nm SE 
080156Z AUTO 19013G24KT 01/M03 A2995 RMK AO1 PK WND 19026/0146 SLP152 T00111028
KBTP 
20nm N 
080156Z AUTO 12004KT 10SM CLR M02/M07 A3038 RMK AO2 SLP311 T10171067 FZRANO
TAF
KAGC 
6nm SE 
071727Z 0718/0818 VRB02KT P6SM SCT250 FM080000 14004KT P6SM SCT250
KPIT 
13nm W 
072056Z 0721/0824 VRB03KT P6SM SKC FM081400 14004KT P6SM SCT020 FM081800 19007KT P6SM BKN025
NOTAMs
Click for the latest NOTAMs
NOTAMs are issued by the DoD/FAA and will open in a separate window not controlled by AirNav.

 

 
 

Would you like to see your business listed on this page?

 If your business provides an interesting product or service to pilots, flight crews, aircraft, or users of the University of Pittsburgh Medical Center Mercy Heliport, you should consider listing it here.  To start the listing process, click on the button below
 
Add a business
 

Other Pages about University of Pittsburgh Medical Center Mercy Heliport

Update a link
 
Copyright © AirNav, LLC. All rights reserved. Privacy Policy  Contact